createdAt,value
2018-01-06T00:02:06.006Z,96631
2018-01-06T00:04:34.173Z,96624
2018-01-06T00:07:02.373Z,96628
2018-01-06T00:09:31.305Z,96625
2018-01-06T00:11:59.458Z,96622
2018-01-06T00:14:27.650Z,96623
2018-01-06T00:16:55.935Z,96621
2018-01-06T00:19:24.124Z,96621
2018-01-06T00:21:52.290Z,96628
2018-01-06T00:24:20.467Z,96625
2018-01-06T00:26:48.644Z,96625
2018-01-06T00:29:16.847Z,96627
2018-01-06T00:31:45.010Z,96629
2018-01-06T00:34:13.177Z,96631
2018-01-06T00:36:41.339Z,96636
2018-01-06T00:39:09.506Z,96637
2018-01-06T00:41:37.686Z,96637
2018-01-06T00:44:05.872Z,96636
2018-01-06T00:46:34.036Z,96643
2018-01-06T00:49:02.210Z,96643
2018-01-06T00:51:30.415Z,96650
2018-01-06T00:53:58.594Z,96639
2018-01-06T00:56:26.783Z,96650
2018-01-06T00:58:55.708Z,96655
2018-01-06T01:01:23.891Z,96646
2018-01-06T01:03:52.061Z,96650
2018-01-06T01:06:20.229Z,96658
2018-01-06T01:08:48.391Z,96654
2018-01-06T01:11:16.567Z,96655
2018-01-06T01:13:44.916Z,96657
2018-01-06T01:16:13.119Z,96656
2018-01-06T01:18:41.297Z,96660
2018-01-06T01:21:13.101Z,96657
2018-01-06T01:23:41.386Z,96659
2018-01-06T01:26:09.566Z,96657
2018-01-06T01:28:37.769Z,96661
2018-01-06T01:31:06.711Z,96662
2018-01-06T01:33:34.877Z,96664
2018-01-06T01:36:03.042Z,96665
2018-01-06T01:38:31.206Z,96661
2018-01-06T01:40:59.382Z,96656
2018-01-06T01:43:27.556Z,96665
2018-01-06T01:45:55.719Z,96665
2018-01-06T01:48:24.675Z,96657
2018-01-06T01:50:52.844Z,96660
2018-01-06T01:53:21.003Z,96672
2018-01-06T01:55:49.172Z,96678
2018-01-06T01:58:17.364Z,96673
2018-01-06T02:00:45.531Z,96671
2018-01-06T02:03:13.692Z,96673
2018-01-06T02:05:41.855Z,96675
2018-01-06T02:08:10.033Z,96678
2018-01-06T02:10:38.207Z,96676
2018-01-06T02:13:06.373Z,96685
2018-01-06T02:15:34.540Z,96680
2018-01-06T02:18:02.699Z,96676
2018-01-06T02:20:31.634Z,96675
2018-01-06T02:22:59.806Z,96674
2018-01-06T02:25:27.979Z,96676
2018-01-06T02:27:56.142Z,96680
2018-01-06T02:30:24.334Z,96666
2018-01-06T02:32:52.502Z,96666
2018-01-06T02:35:20.668Z,96668
2018-01-06T02:37:48.842Z,96669
2018-01-06T02:40:17.005Z,96675
2018-01-06T02:42:45.186Z,96668
2018-01-06T02:45:13.397Z,96669
2018-01-06T02:47:41.566Z,96671
2018-01-06T02:50:09.763Z,96675
2018-01-06T02:52:37.966Z,96674
2018-01-06T02:55:06.241Z,96676
2018-01-06T02:57:34.413Z,96678
2018-01-06T03:00:03.342Z,96671
2018-01-06T03:02:31.517Z,96673
2018-01-06T03:04:59.671Z,96674
2018-01-06T03:07:27.856Z,96674
2018-01-06T03:09:56.030Z,96677
2018-01-06T03:12:24.200Z,96676
2018-01-06T03:14:52.357Z,96678
2018-01-06T03:17:20.555Z,96680
2018-01-06T03:19:48.725Z,96679
2018-01-06T03:22:16.883Z,96679
2018-01-06T03:24:45.044Z,96678
2018-01-06T03:27:14.006Z,96688
2018-01-06T03:29:42.167Z,96683
2018-01-06T03:32:10.326Z,96686
2018-01-06T03:34:38.494Z,96683
2018-01-06T03:37:06.674Z,96679
2018-01-06T03:39:34.848Z,96680
2018-01-06T03:42:03.019Z,96676
2018-01-06T03:44:31.196Z,96677
2018-01-06T03:46:59.351Z,96678
2018-01-06T03:49:27.535Z,96677
2018-01-06T03:51:55.713Z,96679
2018-01-06T03:54:23.887Z,96682
2018-01-06T03:56:52.057Z,96682
2018-01-06T03:59:20.240Z,96682
2018-01-06T04:01:48.433Z,96689
2018-01-06T04:04:17.364Z,96683
2018-01-06T04:06:46.386Z,96688
2018-01-06T04:09:14.550Z,96690
2018-01-06T04:11:42.718Z,96689
2018-01-06T04:14:10.897Z,96691
2018-01-06T04:16:39.063Z,96697
2018-01-06T04:19:07.987Z,96698
2018-01-06T04:21:36.173Z,96699
2018-01-06T04:24:04.346Z,96695
2018-01-06T04:26:32.514Z,96691
2018-01-06T04:29:00.673Z,96702
2018-01-06T04:31:28.838Z,96701
2018-01-06T04:33:57.098Z,96703
2018-01-06T04:36:26.038Z,96698
2018-01-06T04:38:54.250Z,96700
2018-01-06T04:41:22.450Z,96704
2018-01-06T04:43:51.382Z,96709
2018-01-06T04:46:19.542Z,96717
2018-01-06T04:48:47.699Z,96706
2018-01-06T04:51:15.855Z,96718
2018-01-06T04:53:44.795Z,96725
2018-01-06T04:56:13.722Z,96716
2018-01-06T04:58:41.885Z,96723
2018-01-06T05:01:10.123Z,96720
2018-01-06T05:03:38.322Z,96726
2018-01-06T05:06:07.254Z,96730
2018-01-06T05:08:36.192Z,96732
2018-01-06T05:11:04.357Z,96736
2018-01-06T05:13:32.558Z,96739
2018-01-06T05:16:00.725Z,96744
2018-01-06T05:18:28.886Z,96746
2018-01-06T05:20:57.045Z,96752
2018-01-06T05:23:25.226Z,96752
2018-01-06T05:25:53.394Z,96754
2018-01-06T05:28:21.619Z,96760
2018-01-06T05:30:49.803Z,96759
2018-01-06T05:33:17.979Z,96762
2018-01-06T05:35:46.161Z,96767
2018-01-06T05:38:14.323Z,96770
2018-01-06T05:40:42.496Z,96768
2018-01-06T05:43:10.656Z,96769
2018-01-06T05:45:38.876Z,96776
2018-01-06T05:48:07.807Z,96775
2018-01-06T05:50:35.994Z,96777
2018-01-06T05:53:04.157Z,96773
2018-01-06T05:55:32.325Z,96767
2018-01-06T05:58:00.491Z,96769
2018-01-06T06:00:28.667Z,96766
2018-01-06T06:02:56.857Z,96769
2018-01-06T06:05:25.015Z,96772
2018-01-06T06:07:53.237Z,96770
2018-01-06T06:10:21.398Z,96766
2018-01-06T06:12:49.554Z,96766
2018-01-06T06:15:17.721Z,96777
2018-01-06T06:17:45.882Z,96776
2018-01-06T06:20:14.038Z,96775
2018-01-06T06:22:42.974Z,96776
2018-01-06T06:25:11.138Z,96780
2018-01-06T06:27:39.317Z,96785
2018-01-06T06:30:07.485Z,96785
2018-01-06T06:32:35.652Z,96796
2018-01-06T06:35:03.843Z,96799
2018-01-06T06:37:32.007Z,96806
2018-01-06T06:40:00.195Z,96803
2018-01-06T06:42:28.361Z,96795
2018-01-06T06:44:56.523Z,96806
2018-01-06T06:47:24.710Z,96805
2018-01-06T06:49:52.867Z,96813
2018-01-06T06:52:21.036Z,96813
2018-01-06T06:54:49.206Z,96808
2018-01-06T06:57:17.385Z,96808
2018-01-06T06:59:45.553Z,96811
2018-01-06T07:02:13.773Z,96813
2018-01-06T07:04:41.949Z,96820
2018-01-06T07:07:10.102Z,96826
2018-01-06T07:09:38.257Z,96816
2018-01-06T07:12:06.418Z,96814
2018-01-06T07:14:35.346Z,96819
2018-01-06T07:17:03.513Z,96825
2018-01-06T07:19:31.686Z,96825
2018-01-06T07:21:59.845Z,96826
2018-01-06T07:24:28.007Z,96835
2018-01-06T07:26:56.954Z,96838
2018-01-06T07:29:25.112Z,96847
2018-01-06T07:31:53.295Z,96842
2018-01-06T07:34:21.463Z,96845
2018-01-06T07:36:49.732Z,96848
2018-01-06T07:39:17.890Z,96854
2018-01-06T07:41:46.048Z,96855
2018-01-06T07:44:14.966Z,96842
2018-01-06T07:46:43.118Z,96849
2018-01-06T07:49:11.313Z,96857
2018-01-06T07:51:39.474Z,96866
2018-01-06T07:54:07.638Z,96863
2018-01-06T07:56:36.569Z,96855
2018-01-06T07:59:04.731Z,96864
2018-01-06T08:01:32.892Z,96863
2018-01-06T08:04:01.050Z,96865
2018-01-06T08:06:30.013Z,96863
2018-01-06T08:08:58.198Z,96868
2018-01-06T08:11:26.354Z,96867
2018-01-06T08:13:54.505Z,96871
2018-01-06T08:16:22.674Z,96880
2018-01-06T08:18:50.836Z,96890
2018-01-06T08:21:18.994Z,96885
2018-01-06T08:23:47.164Z,96889
2018-01-06T08:26:16.140Z,96886
2018-01-06T08:28:45.062Z,96894
2018-01-06T08:31:13.238Z,96898
2018-01-06T08:33:41.432Z,96892
2018-01-06T08:36:09.588Z,96894
2018-01-06T08:38:37.747Z,96901
2018-01-06T08:41:06.685Z,96897
2018-01-06T08:43:34.843Z,96903
2018-01-06T08:46:03.030Z,96904
2018-01-06T08:48:31.202Z,96909
2018-01-06T08:50:59.369Z,96899
2018-01-06T08:53:27.529Z,96912
2018-01-06T08:55:55.702Z,96902
2018-01-06T08:58:23.872Z,96911
2018-01-06T09:00:52.067Z,96910
2018-01-06T09:03:20.258Z,96908
2018-01-06T09:05:49.185Z,96913
2018-01-06T09:08:18.119Z,96906
2018-01-06T09:10:46.288Z,96906
2018-01-06T09:13:14.446Z,96896
2018-01-06T09:15:42.617Z,96907
2018-01-06T09:18:11.550Z,96910
2018-01-06T09:20:39.714Z,96904
2018-01-06T09:23:07.861Z,96900
2018-01-06T09:25:36.046Z,96904
2018-01-06T09:28:04.250Z,96898
2018-01-06T09:30:32.409Z,96893
2018-01-06T09:33:00.569Z,96895
2018-01-06T09:35:28.741Z,96898
2018-01-06T09:37:56.920Z,96907
2018-01-06T09:40:25.078Z,96899
2018-01-06T09:42:54.029Z,96881
2018-01-06T09:45:22.208Z,96885
2018-01-06T09:47:50.374Z,96888
2018-01-06T09:50:18.529Z,96890
2018-01-06T09:52:46.693Z,96879
2018-01-06T09:55:14.843Z,96880
2018-01-06T09:57:43.779Z,96876
2018-01-06T10:00:11.949Z,96882
2018-01-06T10:02:40.110Z,96874
2018-01-06T10:05:08.282Z,96863
2018-01-06T10:07:36.539Z,96873
2018-01-06T10:10:04.684Z,96873
2018-01-06T10:12:32.875Z,96858
2018-01-06T10:15:01.807Z,96864
2018-01-06T10:17:29.968Z,96863
2018-01-06T10:19:58.137Z,96864
2018-01-06T10:22:26.323Z,96857
2018-01-06T10:24:54.509Z,96852
2018-01-06T10:27:22.682Z,96844
2018-01-06T10:29:50.842Z,96836
2018-01-06T10:32:19.020Z,96838
2018-01-06T10:34:47.250Z,96835
2018-01-06T10:37:15.417Z,96828
2018-01-06T10:39:43.591Z,96840
2018-01-06T10:42:11.767Z,96841
2018-01-06T10:44:41.449Z,96833
2018-01-06T10:47:09.700Z,96831
2018-01-06T10:49:37.865Z,96830
2018-01-06T10:52:06.142Z,96832
2018-01-06T10:54:34.324Z,96835
2018-01-06T10:57:02.505Z,96827
2018-01-06T10:59:30.675Z,96828
2018-01-06T11:02:07.441Z,96823
2018-01-06T11:04:35.603Z,96822
2018-01-06T11:07:03.770Z,96816
2018-01-06T11:09:31.958Z,96811
2018-01-06T11:12:00.123Z,96804
2018-01-06T11:14:28.297Z,96804
2018-01-06T11:16:56.470Z,96796
2018-01-06T11:19:24.648Z,96797
2018-01-06T11:21:52.850Z,96792
2018-01-06T11:24:21.023Z,96782
2018-01-06T11:26:49.203Z,96789
2018-01-06T11:29:17.393Z,96779
2018-01-06T11:31:45.586Z,96777
2018-01-06T11:34:13.750Z,96777
2018-01-06T11:36:41.935Z,96780
2018-01-06T11:39:10.118Z,96769
2018-01-06T11:41:39.073Z,96761
2018-01-06T11:44:07.237Z,96774
2018-01-06T11:46:35.423Z,96771
2018-01-06T11:49:03.594Z,96765
2018-01-06T11:51:31.760Z,96766
2018-01-06T11:53:59.930Z,96768
2018-01-06T11:56:28.099Z,96767
2018-01-06T11:58:56.276Z,96759
2018-01-06T12:01:25.212Z,96756
2018-01-06T12:03:53.386Z,96760
2018-01-06T12:06:21.627Z,96764
2018-01-06T12:08:49.798Z,96772
2018-01-06T12:11:17.966Z,96744
2018-01-06T12:13:46.126Z,96760
2018-01-06T12:16:14.314Z,96739
2018-01-06T12:18:42.520Z,96760
2018-01-06T12:21:10.687Z,96750
2018-01-06T12:23:38.878Z,96759
2018-01-06T12:26:07.044Z,96743
2018-01-06T12:28:35.220Z,96747
2018-01-06T12:31:03.421Z,96738
2018-01-06T12:33:32.368Z,96737
2018-01-06T12:36:00.542Z,96724
2018-01-06T12:38:28.751Z,96719
2018-01-06T12:40:56.927Z,96718
2018-01-06T12:43:25.101Z,96718
2018-01-06T12:45:53.281Z,96724
2018-01-06T12:48:22.223Z,96717
2018-01-06T12:50:50.391Z,96719
2018-01-06T12:53:18.550Z,96719
2018-01-06T12:55:46.725Z,96712
2018-01-06T12:58:14.916Z,96717
2018-01-06T13:00:43.088Z,96717
2018-01-06T13:03:11.269Z,96716
2018-01-06T13:05:39.472Z,96714
2018-01-06T13:08:08.422Z,96718
2018-01-06T13:10:36.584Z,96708
2018-01-06T13:13:05.550Z,96695
2018-01-06T13:15:33.753Z,96684
2018-01-06T13:18:01.922Z,96695
2018-01-06T13:20:30.854Z,96689
2018-01-06T13:22:59.064Z,96697
2018-01-06T13:25:27.253Z,96692
2018-01-06T13:27:56.214Z,96699
2018-01-06T13:30:24.411Z,96696
2018-01-06T13:32:52.586Z,96698
2018-01-06T13:35:20.761Z,96706
2018-01-06T13:37:48.940Z,96702
2018-01-06T13:40:17.894Z,96701
2018-01-06T13:42:46.062Z,96704
2018-01-06T13:45:14.231Z,96700
2018-01-06T13:47:42.445Z,96704
2018-01-06T13:50:10.666Z,96712
2018-01-06T13:52:38.827Z,96718
2018-01-06T13:55:06.998Z,96719
2018-01-06T13:57:35.960Z,96723
2018-01-06T14:00:04.153Z,96722
2018-01-06T14:02:33.155Z,96728
2018-01-06T14:05:02.080Z,96731
2018-01-06T14:07:30.281Z,96734
2018-01-06T14:09:58.451Z,96730
2018-01-06T14:12:26.642Z,96734
2018-01-06T14:14:54.814Z,96735
2018-01-06T14:17:22.985Z,96735
2018-01-06T14:19:51.159Z,96737
2018-01-06T14:22:19.350Z,96731
2018-01-06T14:24:47.522Z,96737
2018-01-06T14:27:15.708Z,96738
2018-01-06T14:29:44.662Z,96732
2018-01-06T14:32:12.836Z,96732
2018-01-06T14:34:41.003Z,96734
2018-01-06T14:37:09.167Z,96735
2018-01-06T14:39:37.336Z,96738
2018-01-06T14:42:05.531Z,96737
2018-01-06T14:44:33.697Z,96729
2018-01-06T14:47:01.870Z,96728
2018-01-06T14:49:30.026Z,96734
2018-01-06T14:51:58.210Z,96739
2018-01-06T14:54:26.375Z,96733
2018-01-06T14:56:54.546Z,96746
2018-01-06T14:59:22.755Z,96743
2018-01-06T15:01:50.933Z,96749
2018-01-06T15:04:19.158Z,96755
2018-01-06T15:06:48.110Z,96757
2018-01-06T15:09:16.298Z,96755
2018-01-06T15:11:44.479Z,96761
2018-01-06T15:14:12.654Z,96763
2018-01-06T15:16:40.823Z,96763
2018-01-06T15:19:09.043Z,96770
2018-01-06T15:21:37.207Z,96767
2018-01-06T15:24:05.384Z,96771
2018-01-06T15:26:33.570Z,96777
2018-01-06T15:29:01.750Z,96780
2018-01-06T15:31:29.927Z,96770
2018-01-06T15:33:58.094Z,96780
2018-01-06T15:36:26.289Z,96781
2018-01-06T15:38:54.462Z,96781
2018-01-06T15:41:22.639Z,96776
2018-01-06T15:43:50.802Z,96773
2018-01-06T15:46:18.992Z,96775
2018-01-06T15:48:47.160Z,96780
2018-01-06T15:51:15.324Z,96779
2018-01-06T15:53:43.507Z,96772
2018-01-06T15:56:11.672Z,96785
2018-01-06T15:58:39.829Z,96791
2018-01-06T16:01:08.001Z,96793
2018-01-06T16:03:36.173Z,96786
2018-01-06T16:06:04.335Z,96790
2018-01-06T16:08:33.262Z,96790
2018-01-06T16:11:01.435Z,96783
2018-01-06T16:13:29.606Z,96794
2018-01-06T16:15:57.770Z,96793
2018-01-06T16:18:25.966Z,96796
2018-01-06T16:20:54.135Z,96807
2018-01-06T16:23:22.308Z,96809
2018-01-06T16:25:50.457Z,96800
2018-01-06T16:28:19.423Z,96811
2018-01-06T16:30:47.588Z,96809
2018-01-06T16:33:15.745Z,96802
2018-01-06T16:35:43.937Z,96803
2018-01-06T16:38:12.100Z,96802
2018-01-06T16:40:40.266Z,96805
2018-01-06T16:43:08.426Z,96823
2018-01-06T16:45:36.662Z,96828
2018-01-06T16:48:06.069Z,96830
2018-01-06T16:50:35.198Z,96840
2018-01-06T16:53:05.154Z,96836
2018-01-06T16:55:33.671Z,96846
2018-01-06T16:58:02.415Z,96844
2018-01-06T17:00:33.034Z,96845
2018-01-06T17:03:02.339Z,96853
2018-01-06T17:05:31.653Z,96849
2018-01-06T17:07:59.864Z,96864
2018-01-06T17:10:28.004Z,96865
2018-01-06T17:12:56.182Z,96857
2018-01-06T17:15:24.341Z,96874
2018-01-06T17:17:52.518Z,96867
2018-01-06T17:20:20.709Z,96870
2018-01-06T17:22:48.877Z,96873
2018-01-06T17:25:17.056Z,96868
2018-01-06T17:27:45.236Z,96873
2018-01-06T17:30:13.420Z,96883
2018-01-06T17:32:42.355Z,96867
2018-01-06T17:35:10.543Z,96882
2018-01-06T17:37:38.717Z,96879
2018-01-06T17:40:06.902Z,96888
2018-01-06T17:42:35.077Z,96888
2018-01-06T17:45:03.269Z,96897
2018-01-06T17:47:31.450Z,96895
2018-01-06T17:49:59.622Z,96881
2018-01-06T17:52:27.799Z,96903
2018-01-06T17:54:55.974Z,96897
2018-01-06T17:57:24.329Z,96892
2018-01-06T17:59:52.508Z,96896
2018-01-06T18:02:20.709Z,96908
2018-01-06T18:04:49.675Z,96877
2018-01-06T18:07:17.851Z,96886
2018-01-06T18:09:46.051Z,96893
2018-01-06T18:12:14.999Z,96901
2018-01-06T18:14:43.946Z,96912
2018-01-06T18:17:12.878Z,96913
2018-01-06T18:19:41.097Z,96914
2018-01-06T18:22:10.076Z,96917
2018-01-06T18:24:38.254Z,96916
2018-01-06T18:27:06.442Z,96922
2018-01-06T18:29:34.616Z,96925
2018-01-06T18:32:02.784Z,96924
2018-01-06T18:34:30.968Z,96933
2018-01-06T18:36:59.906Z,96934
2018-01-06T18:39:28.090Z,96940
2018-01-06T18:41:56.258Z,96931
2018-01-06T18:44:24.437Z,96931
2018-01-06T18:46:52.619Z,96919
2018-01-06T18:49:20.795Z,96930
2018-01-06T18:51:48.973Z,96932
2018-01-06T18:54:17.155Z,96932
2018-01-06T18:56:45.338Z,96949
2018-01-06T18:59:13.610Z,96945
2018-01-06T19:01:41.826Z,96959
2018-01-06T19:04:10.007Z,96954
2018-01-06T19:06:38.184Z,96966
2018-01-06T19:09:06.409Z,96965
2018-01-06T19:11:34.585Z,96964
2018-01-06T19:14:02.758Z,96970
2018-01-06T19:16:30.942Z,96973
2018-01-06T19:18:59.116Z,96975
2018-01-06T19:21:27.286Z,96980
2018-01-06T19:23:55.459Z,96983
2018-01-06T19:26:23.635Z,96987
2018-01-06T19:28:51.804Z,96982
2018-01-06T19:31:19.970Z,96990
2018-01-06T19:33:48.150Z,96992
2018-01-06T19:36:16.310Z,96997
2018-01-06T19:38:44.480Z,96999
2018-01-06T19:41:12.675Z,97002
2018-01-06T19:43:41.449Z,96999
2018-01-06T19:46:09.627Z,97008
2018-01-06T19:48:37.794Z,97004
2018-01-06T19:51:05.964Z,97008
2018-01-06T19:53:34.131Z,97011
2018-01-06T19:56:02.312Z,97015
2018-01-06T19:58:30.482Z,97017
2018-01-06T20:00:58.661Z,97018
2018-01-06T20:03:26.839Z,97023
2018-01-06T20:05:55.092Z,97015
2018-01-06T20:08:23.285Z,97033
2018-01-06T20:10:51.486Z,97031
2018-01-06T20:13:19.644Z,97040
2018-01-06T20:15:47.813Z,97037
2018-01-06T20:18:15.989Z,97035
2018-01-06T20:20:44.171Z,97042
2018-01-06T20:23:12.374Z,97046
2018-01-06T20:25:40.598Z,97055
2018-01-06T20:28:08.784Z,97052
2018-01-06T20:30:37.043Z,97054
2018-01-06T20:33:05.229Z,97049
2018-01-06T20:35:33.480Z,97046
2018-01-06T20:38:01.727Z,97058
2018-01-06T20:40:30.067Z,97054
2018-01-06T20:42:58.379Z,97055
2018-01-06T20:45:27.513Z,97050
2018-01-06T20:47:55.875Z,97050
2018-01-06T20:50:24.949Z,97060
2018-01-06T20:52:54.112Z,97050
2018-01-06T20:55:22.498Z,97058
2018-01-06T20:57:50.899Z,97054
2018-01-06T21:00:19.903Z,97054
2018-01-06T21:02:48.232Z,97055
2018-01-06T21:05:16.598Z,97058
2018-01-06T21:07:44.939Z,97055
2018-01-06T21:10:13.924Z,97067
2018-01-06T21:12:42.171Z,97075
2018-01-06T21:15:10.365Z,97070
2018-01-06T21:17:38.536Z,97073
2018-01-06T21:20:06.743Z,97073
2018-01-06T21:22:34.915Z,97081
2018-01-06T21:25:03.118Z,97084
2018-01-06T21:27:31.298Z,97090
2018-01-06T21:29:59.492Z,97095
2018-01-06T21:32:27.655Z,97091
2018-01-06T21:34:55.842Z,97093
2018-01-06T21:37:24.131Z,97094
2018-01-06T21:39:52.303Z,97098
2018-01-06T21:42:20.508Z,97102
2018-01-06T21:44:48.679Z,97101
2018-01-06T21:47:16.847Z,97103
2018-01-06T21:49:45.029Z,97104
2018-01-06T21:52:13.216Z,97103
2018-01-06T21:54:41.412Z,97103
2018-01-06T21:57:10.343Z,97103
2018-01-06T21:59:38.517Z,97099
2018-01-06T22:02:06.680Z,97094
2018-01-06T22:04:34.853Z,97099
2018-01-06T22:07:03.018Z,97097
2018-01-06T22:09:31.215Z,97097
2018-01-06T22:11:59.406Z,97101
2018-01-06T22:14:27.607Z,97106
2018-01-06T22:16:55.780Z,97106
2018-01-06T22:19:23.985Z,97106
2018-01-06T22:21:52.149Z,97119
2018-01-06T22:24:21.083Z,97117
2018-01-06T22:26:49.263Z,97109
2018-01-06T22:29:17.421Z,97113
2018-01-06T22:31:45.583Z,97116
2018-01-06T22:34:13.742Z,97117
2018-01-06T22:36:42.672Z,97126
2018-01-06T22:39:10.941Z,97124
2018-01-06T22:41:39.099Z,97122
2018-01-06T22:44:07.273Z,97120
2018-01-06T22:46:35.460Z,97118
2018-01-06T22:49:03.618Z,97120
2018-01-06T22:51:31.796Z,97120
2018-01-06T22:53:59.998Z,97127
2018-01-06T22:56:29.755Z,97130
2018-01-06T22:58:58.695Z,97134
2018-01-06T23:01:26.858Z,97137
2018-01-06T23:03:55.019Z,97131
2018-01-06T23:06:23.169Z,97137
2018-01-06T23:08:52.101Z,97135
2018-01-06T23:11:20.274Z,97131
2018-01-06T23:13:48.444Z,97136
2018-01-06T23:16:16.598Z,97132
2018-01-06T23:18:45.531Z,97133
2018-01-06T23:21:13.790Z,97132
2018-01-06T23:23:41.987Z,97130
2018-01-06T23:26:10.144Z,97134
2018-01-06T23:28:38.335Z,97136
2018-01-06T23:31:06.495Z,97144
2018-01-06T23:33:34.664Z,97149
2018-01-06T23:36:02.856Z,97151
2018-01-06T23:38:31.011Z,97145
2018-01-06T23:40:59.170Z,97149
2018-01-06T23:43:27.330Z,97147
2018-01-06T23:45:56.258Z,97159
2018-01-06T23:48:24.449Z,97159
2018-01-06T23:50:52.606Z,97161
2018-01-06T23:53:20.778Z,97163
2018-01-06T23:55:48.988Z,97165
2018-01-06T23:58:17.158Z,97167
